Time;durP1;ratioP1;P1;durP2;ratioP2;P2;SDS_P1;SDS_P2;PMS_P1;PMS_P2;Temp;Humidity;BMP_temperature;BMP_pressure;BME280_temperature;BME280_humidity;BME280_pressure;Samples;Min_cycle;Max_cycle;Signal;HPM_P1;HPM_P2
2021/01/17 00:00:09;;;;;;;4.03;2.72;;;16.30;51.50;;;;;;5093801;28;20012;-71
2021/01/17 00:02:35;;;;;;;4.28;3.35;;;16.30;51.60;;;;;;5092782;28;20028;-71
2021/01/17 00:05:00;;;;;;;4.68;3.17;;;16.30;51.50;;;;;;5093298;28;20032;-71
2021/01/17 00:07:30;;;;;;;5.35;3.55;;;16.20;51.60;;;;;;5075514;28;20027;-70
2021/01/17 00:09:56;;;;;;;5.05;3.58;;;16.20;51.60;;;;;;5093399;28;20020;-70
2021/01/17 00:12:22;;;;;;;4.40;3.20;;;16.20;52.20;;;;;;5093674;28;20032;-71
2021/01/17 00:14:47;;;;;;;4.82;3.47;;;16.10;51.70;;;;;;5093393;28;20028;-70
2021/01/17 00:17:13;;;;;;;5.43;3.28;;;16.10;52.30;;;;;;5093279;28;20399;-71
2021/01/17 00:19:39;;;;;;;4.47;3.58;;;16.10;51.70;;;;;;5093354;28;20023;-70
2021/01/17 00:22:04;;;;;;;5.38;3.67;;;16.10;51.70;;;;;;5093398;28;20024;-69
2021/01/17 00:24:30;;;;;;;6.18;3.80;;;16.00;51.70;;;;;;5093495;28;20441;-74
2021/01/17 00:26:56;;;;;;;4.47;3.00;;;16.00;51.80;;;;;;5093154;28;20020;-73
2021/01/17 00:29:21;;;;;;;5.20;3.63;;;16.00;51.90;;;;;;5093325;28;20515;-73
2021/01/17 00:31:49;;;;;;;4.63;3.30;;;16.00;52.00;;;;;;5092542;28;20525;-73
2021/01/17 00:34:14;;;;;;;5.03;3.50;;;15.90;51.90;;;;;;5075031;28;20430;-73
2021/01/17 00:36:40;;;;;;;4.97;3.50;;;15.90;51.90;;;;;;5093001;28;20050;-73
2021/01/17 00:39:07;;;;;;;4.50;3.55;;;15.90;51.90;;;;;;5092823;28;20031;-73
2021/01/17 00:41:34;;;;;;;5.18;3.65;;;15.90;52.50;;;;;;5092666;28;20012;-73
2021/01/17 00:43:59;;;;;;;4.82;3.50;;;15.80;51.90;;;;;;5072907;28;20021;-72
2021/01/17 00:46:25;;;;;;;5.90;3.72;;;15.80;52.10;;;;;;5072663;28;20023;-72
2021/01/17 00:48:51;;;;;;;6.35;4.10;;;15.80;52.10;;;;;;5072478;28;20073;-72
2021/01/17 00:51:18;;;;;;;5.03;3.55;;;15.80;52.20;;;;;;5072490;28;20036;-73
2021/01/17 00:53:44;;;;;;;6.32;4.10;;;15.70;52.10;;;;;;5072268;28;20021;-72
2021/01/17 00:56:10;;;;;;;4.65;3.60;;;15.70;52.20;;;;;;5072373;28;20052;-73
2021/01/17 00:58:35;;;;;;;5.22;3.80;;;15.70;52.20;;;;;;5072059;28;20099;-73
2021/01/17 01:01:01;;;;;;;5.70;3.90;;;15.60;52.10;;;;;;5072490;28;20021;-72
2021/01/17 01:03:27;;;;;;;5.75;3.97;;;15.60;52.20;;;;;;5088650;28;20024;-72
2021/01/17 01:05:52;;;;;;;5.72;3.63;;;15.60;52.10;;;;;;5074096;28;20562;-72
2021/01/17 01:08:18;;;;;;;7.00;3.75;;;15.60;52.20;;;;;;5092661;28;20053;-72
2021/01/17 01:10:43;;;;;;;4.18;3.60;;;15.50;52.10;;;;;;5091847;28;20100;-72
2021/01/17 01:13:09;;;;;;;5.15;3.55;;;15.50;52.10;;;;;;5091915;28;20028;-72
2021/01/17 01:15:35;;;;;;;6.63;4.05;;;15.50;52.10;;;;;;5091805;28;20016;-72
2021/01/17 01:18:00;;;;;;;6.60;4.78;;;15.50;52.20;;;;;;5092626;28;20054;-73
2021/01/17 01:20:26;;;;;;;5.38;4.03;;;15.50;52.10;;;;;;5092307;28;20012;-72
2021/01/17 01:22:52;;;;;;;7.50;4.32;;;15.40;52.20;;;;;;5091815;28;20031;-72
2021/01/17 01:25:17;;;;;;;5.43;3.60;;;15.40;52.20;;;;;;5092023;28;20484;-72
2021/01/17 01:27:49;;;;;;;6.15;4.20;;;15.40;52.20;;;;;;5073725;28;20032;-72
2021/01/17 01:30:15;;;;;;;5.55;4.15;;;15.40;52.20;;;;;;5091667;28;20130;-72
2021/01/17 01:32:41;;;;;;;4.50;3.78;;;15.40;52.20;;;;;;5091893;28;20043;-72
2021/01/17 01:35:08;;;;;;;5.88;3.85;;;15.30;52.10;;;;;;5091919;28;20093;-72
2021/01/17 01:37:37;;;;;;;6.10;3.90;;;15.30;52.20;;;;;;5091639;28;20028;-72
2021/01/17 01:40:06;;;;;;;4.57;3.55;;;15.30;52.20;;;;;;5091339;28;20380;-72
2021/01/17 01:42:32;;;;;;;6.40;4.05;;;15.30;52.20;;;;;;5091279;28;20036;-72
2021/01/17 01:44:57;;;;;;;6.32;3.80;;;15.30;52.30;;;;;;5091762;28;20492;-72
2021/01/17 01:47:26;;;;;;;5.07;3.67;;;15.20;52.20;;;;;;5091816;28;20016;-71
2021/01/17 01:49:52;;;;;;;4.82;3.45;;;15.20;52.20;;;;;;5091544;28;20062;-73
2021/01/17 01:52:18;;;;;;;8.77;3.63;;;15.20;52.40;;;;;;5091643;28;20028;-72
2021/01/17 01:54:43;;;;;;;5.38;3.63;;;15.20;52.50;;;;;;5091266;28;20024;-72
2021/01/17 01:57:09;;;;;;;4.68;3.42;;;15.20;52.50;;;;;;5073725;28;20499;-72
2021/01/17 01:59:35;;;;;;;5.13;3.75;;;15.10;53.10;;;;;;5091402;28;20016;-72
2021/01/17 02:02:07;;;;;;;5.20;3.60;;;15.10;52.50;;;;;;5091546;28;20038;-73
2021/01/17 02:04:35;;;;;;;6.88;3.90;;;15.10;52.60;;;;;;5091112;28;20058;-72
2021/01/17 02:07:18;;;;;;;6.07;4.07;;;15.10;52.60;;;;;;5091354;28;20035;-72
2021/01/17 02:09:44;;;;;;;5.07;3.65;;;15.10;52.60;;;;;;5091305;28;20014;-72
2021/01/17 02:12:16;;;;;;;5.72;3.30;;;15.00;53.20;;;;;;5091283;28;20032;-73
2021/01/17 02:15:09;;;;;;;5.80;3.50;;;15.00;52.60;;;;;;5091154;28;20028;-73
2021/01/17 02:17:36;;;;;;;5.68;3.42;;;15.00;52.70;;;;;;5091108;28;20020;-72
2021/01/17 02:20:24;;;;;;;5.68;3.58;;;15.00;52.70;;;;;;5091175;28;20058;-73
2021/01/17 02:23:04;;;;;;;7.32;3.30;;;15.00;52.70;;;;;;5091215;28;20009;-72
2021/01/17 02:25:35;;;;;;;5.68;3.50;;;15.00;52.70;;;;;;5073284;28;20027;-73
2021/01/17 02:28:04;;;;;;;6.05;3.03;;;15.00;52.80;;;;;;5091465;28;20024;-73
2021/01/17 02:30:33;;;;;;;7.43;3.17;;;14.90;52.80;;;;;;5091115;28;20040;-72
2021/01/17 02:33:10;;;;;;;6.45;3.00;;;14.90;52.80;;;;;;5091009;28;20062;-72
2021/01/17 02:35:37;;;;;;;5.38;3.40;;;14.90;52.80;;;;;;5090398;28;20020;-72
2021/01/17 02:38:21;;;;;;;4.97;3.08;;;14.90;52.80;;;;;;5090962;28;20487;-72
2021/01/17 02:40:50;;;;;;;6.97;3.42;;;14.90;52.80;;;;;;5090712;28;20040;-73
2021/01/17 02:43:17;;;;;;;5.57;3.10;;;14.90;52.80;;;;;;5090874;28;20012;-73
2021/01/17 02:45:42;;;;;;;5.50;2.90;;;14.80;53.30;;;;;;5090781;28;20081;-72
2021/01/17 02:48:08;;;;;;;6.13;2.95;;;14.80;52.80;;;;;;5091147;28;20012;-73
2021/01/17 02:50:34;;;;;;;6.90;3.58;;;14.80;52.80;;;;;;5090635;28;20035;-73
2021/01/17 02:53:08;;;;;;;5.28;3.10;;;14.80;52.80;;;;;;5093779;28;20032;-72
2021/01/17 02:55:37;;;;;;;6.53;3.33;;;14.80;52.90;;;;;;5094643;28;20024;-72
2021/01/17 02:58:04;;;;;;;5.50;2.83;;;14.80;52.90;;;;;;5095030;28;20020;-73
2021/01/17 03:00:33;;;;;;;6.03;3.47;;;14.80;52.90;;;;;;5093970;28;20046;-72
2021/01/17 03:03:00;;;;;;;4.25;2.97;;;14.70;52.90;;;;;;5094479;28;20024;-73
2021/01/17 03:05:26;;;;;;;6.18;2.83;;;14.70;52.90;;;;;;5094942;28;20100;-73
2021/01/17 03:07:54;;;;;;;6.05;2.80;;;14.70;52.90;;;;;;5094604;28;20035;-72
2021/01/17 03:10:22;;;;;;;5.45;2.65;;;14.70;53.00;;;;;;5094155;28;20038;-72
2021/01/17 03:12:48;;;;;;;6.10;3.22;;;14.70;52.90;;;;;;5094511;28;20482;-73
2021/01/17 03:15:15;;;;;;;5.22;2.75;;;14.70;53.00;;;;;;5094513;28;20091;-73
2021/01/17 03:17:41;;;;;;;4.20;2.72;;;14.70;53.00;;;;;;5094291;28;20496;-73
2021/01/17 03:20:07;;;;;;;6.60;3.08;;;14.70;53.00;;;;;;5094469;28;20510;-73
2021/01/17 03:22:33;;;;;;;5.95;2.67;;;14.60;52.90;;;;;;5094103;28;20024;-73
2021/01/17 03:24:59;;;;;;;5.72;2.75;;;14.60;53.00;;;;;;5094444;28;20107;-73
2021/01/17 03:27:25;;;;;;;5.65;3.08;;;14.60;53.00;;;;;;5094377;28;20111;-72
2021/01/17 03:29:51;;;;;;;4.88;2.58;;;14.60;53.00;;;;;;5094078;28;20024;-72
2021/01/17 03:32:17;;;;;;;5.70;2.95;;;14.60;53.00;;;;;;5093914;28;20077;-72
2021/01/17 03:34:48;;;;;;;7.63;2.97;;;14.60;53.00;;;;;;5094160;28;20020;-72
2021/01/17 03:37:14;;;;;;;5.50;2.47;;;14.60;53.10;;;;;;5094101;28;20114;-72
2021/01/17 03:39:40;;;;;;;5.97;2.42;;;14.60;53.10;;;;;;5094090;28;20385;-72
2021/01/17 03:42:05;;;;;;;4.97;2.83;;;14.50;53.10;;;;;;5094148;28;20030;-72
2021/01/17 03:44:31;;;;;;;6.97;2.58;;;14.50;53.10;;;;;;5094531;28;20020;-72
2021/01/17 03:46:57;;;;;;;6.43;2.70;;;14.50;53.10;;;;;;5094181;28;20020;-72
2021/01/17 03:49:22;;;;;;;5.72;2.78;;;14.50;53.10;;;;;;5093551;28;20055;-72
2021/01/17 03:51:48;;;;;;;4.80;2.78;;;14.50;53.10;;;;;;5093224;28;20082;-72
2021/01/17 03:54:13;;;;;;;5.90;2.70;;;14.50;53.10;;;;;;5094026;28;20028;-72
2021/01/17 03:56:39;;;;;;;4.00;2.05;;;14.50;53.20;;;;;;5093267;28;20103;-72
2021/01/17 03:59:05;;;;;;;4.80;2.30;;;14.40;53.10;;;;;;5093837;28;20024;-72
2021/01/17 04:01:30;;;;;;;5.43;2.35;;;14.50;53.20;;;;;;5093766;28;20072;-72
2021/01/17 04:03:57;;;;;;;3.88;1.90;;;14.40;53.20;;;;;;5092958;28;20476;-72
2021/01/17 04:06:24;;;;;;;6.07;2.55;;;14.40;53.20;;;;;;5093623;28;20078;-72
2021/01/17 04:08:50;;;;;;;6.10;2.20;;;14.40;53.20;;;;;;5093490;28;20036;-72
2021/01/17 04:11:16;;;;;;;5.38;2.20;;;14.40;53.20;;;;;;5093536;28;20036;-73
2021/01/17 04:13:42;;;;;;;3.78;2.15;;;14.40;53.30;;;;;;5093293;28;20480;-72
2021/01/17 04:16:08;;;;;;;4.38;2.40;;;14.40;53.30;;;;;;5093461;28;20030;-72
2021/01/17 04:18:34;;;;;;;5.10;2.05;;;14.40;53.30;;;;;;5093323;28;20027;-72
2021/01/17 04:21:00;;;;;;;3.95;2.30;;;14.40;53.30;;;;;;5093427;28;20395;-72
2021/01/17 04:23:25;;;;;;;5.70;2.30;;;14.40;53.30;;;;;;5093464;28;20093;-72
2021/01/17 04:25:51;;;;;;;5.95;2.50;;;14.40;53.30;;;;;;5093098;28;20126;-72
2021/01/17 04:28:17;;;;;;;7.25;2.10;;;14.30;53.30;;;;;;5093492;28;20426;-72
2021/01/17 04:30:42;;;;;;;5.20;2.70;;;14.30;53.30;;;;;;5092440;28;20039;-72
2021/01/17 04:33:08;;;;;;;4.85;2.25;;;14.30;53.40;;;;;;5093059;28;20020;-72
2021/01/17 04:35:34;;;;;;;5.03;2.13;;;14.30;53.40;;;;;;5092765;28;20028;-72
2021/01/17 04:38:00;;;;;;;4.20;2.25;;;14.30;53.40;;;;;;5093275;28;20103;-72
2021/01/17 04:40:27;;;;;;;8.60;2.47;;;14.30;53.40;;;;;;5092654;28;20086;-72
2021/01/17 04:43:06;;;;;;;5.47;2.00;;;14.30;53.40;;;;;;5092758;28;20450;-72
2021/01/17 04:45:33;;;;;;;4.63;2.00;;;14.30;53.40;;;;;;5093119;28;20050;-72
2021/01/17 04:48:00;;;;;;;6.93;2.38;;;14.30;53.50;;;;;;5092941;28;20400;-73
2021/01/17 04:50:29;;;;;;;5.15;2.25;;;14.30;53.50;;;;;;5092832;28;20117;-72
2021/01/17 04:53:07;;;;;;;6.47;2.13;;;14.20;53.50;;;;;;5092460;28;20024;-72
2021/01/17 04:55:37;;;;;;;6.40;2.08;;;14.20;54.00;;;;;;5092411;28;20065;-72
2021/01/17 04:58:16;;;;;;;6.28;2.92;;;14.20;53.50;;;;;;5092598;28;20020;-72
2021/01/17 05:00:44;;;;;;;5.57;1.80;;;14.20;53.50;;;;;;5091827;28;20098;-72
2021/01/17 05:03:32;;;;;;;6.22;2.10;;;14.20;53.50;;;;;;5092371;28;20028;-72
2021/01/17 05:06:16;;;;;;;3.67;1.90;;;14.20;53.60;;;;;;5092809;28;20024;-72
2021/01/17 05:08:45;;;;;;;5.03;1.90;;;14.20;53.60;;;;;;5092134;28;20050;-72
2021/01/17 05:11:34;;;;;;;6.28;2.15;;;14.20;54.20;;;;;;5092341;28;20039;-72
2021/01/17 05:14:12;;;;;;;9.10;2.45;;;14.20;53.60;;;;;;5082523;28;20036;-72
2021/01/17 05:16:48;;;;;;;5.95;2.28;;;14.20;53.60;;;;;;5073618;28;20073;-72
2021/01/17 05:19:15;;;;;;;;;;;14.10;53.60;;;;;;5092604;28;20020;-71
2021/01/17 05:21:46;;;;;;;5.72;2.10;;;14.20;53.60;;;;;;5092006;28;19978;-72
2021/01/17 05:24:12;;;;;;;7.18;2.00;;;14.10;53.70;;;;;;5073887;28;20024;-72
2021/01/17 05:26:52;;;;;;;3.63;1.95;;;14.10;53.70;;;;;;5091996;28;20016;-72
2021/01/17 05:29:21;;;;;;;6.03;2.28;;;14.10;53.70;;;;;;5092213;28;20028;-72
2021/01/17 05:31:52;;;;;;;6.90;2.10;;;14.10;53.70;;;;;;5091226;28;20054;-72
2021/01/17 05:34:18;;;;;;;5.85;1.92;;;14.10;53.70;;;;;;5092077;28;20024;-72
2021/01/17 05:36:45;;;;;;;6.35;2.03;;;14.10;53.70;;;;;;5091721;28;20100;-72
2021/01/17 05:39:10;;;;;;;4.45;2.15;;;14.10;53.80;;;;;;5091393;28;20032;-72
2021/01/17 05:41:36;;;;;;;6.55;2.13;;;14.00;53.70;;;;;;5091828;28;20606;-72
2021/01/17 05:44:01;;;;;;;4.50;2.13;;;14.00;53.70;;;;;;5092160;28;20035;-72
2021/01/17 05:46:27;;;;;;;6.63;1.90;;;14.00;53.80;;;;;;5091860;28;20028;-72
2021/01/17 05:49:09;;;;;;;6.88;2.28;;;14.00;53.80;;;;;;5091675;28;20024;-72
2021/01/17 05:51:35;;;;;;;7.78;1.70;;;14.00;53.80;;;;;;5091522;28;20123;-72
2021/01/17 05:54:07;;;;;;;5.30;1.98;;;14.00;53.80;;;;;;5092094;28;20157;-72
2021/01/17 05:56:34;;;;;;;6.80;2.13;;;14.00;53.80;;;;;;5091503;28;20028;-72
2021/01/17 05:59:00;;;;;;;8.07;1.92;;;14.00;53.80;;;;;;5091925;28;20503;-72
2021/01/17 06:01:27;;;;;;;7.38;1.80;;;14.10;54.30;;;;;;5090953;28;20028;-72
2021/01/17 06:03:55;;;;;;;7.95;2.25;;;14.20;53.70;;;;;;5090930;28;20546;-72
2021/01/17 06:06:25;;;;;;;4.00;2.05;;;14.30;53.60;;;;;;5091005;28;20112;-72
2021/01/17 06:08:54;;;;;;;5.03;1.75;;;14.40;53.40;;;;;;5091393;28;20022;-72
2021/01/17 06:11:21;;;;;;;5.82;1.80;;;14.50;53.40;;;;;;5091390;28;20402;-72
2021/01/17 06:13:54;;;;;;;6.18;1.65;;;14.60;53.30;;;;;;5091248;28;20054;-72
2021/01/17 06:16:40;;;;;;;6.55;1.83;;;14.70;53.20;;;;;;5091401;28;20373;-72
2021/01/17 06:19:08;;;;;;;4.60;1.80;;;14.80;53.10;;;;;;5090959;28;20141;-72
2021/01/17 06:21:35;;;;;;;5.55;2.47;;;14.90;52.90;;;;;;5090862;28;20020;-72
2021/01/17 06:24:09;;;;;;;5.88;1.90;;;15.00;52.80;;;;;;5091497;28;20032;-72
2021/01/17 06:26:39;;;;;;;4.32;1.60;;;15.00;52.70;;;;;;5072794;28;20108;-73
2021/01/17 06:29:14;;;;;;;4.55;1.75;;;15.10;52.60;;;;;;5091220;28;20031;-72
2021/01/17 06:31:40;;;;;;;4.15;1.40;;;15.20;52.50;;;;;;5090231;28;20514;-72
2021/01/17 06:34:12;;;;;;;4.70;1.63;;;15.30;52.40;;;;;;5091266;28;20028;-73
2021/01/17 06:36:43;;;;;;;3.60;1.45;;;15.40;52.30;;;;;;5090724;28;20028;-72
2021/01/17 06:39:20;;;;;;;3.17;1.40;;;15.50;52.20;;;;;;5090666;28;20034;-73
2021/01/17 06:41:49;;;;;;;3.83;1.55;;;15.60;52.10;;;;;;5090603;28;20073;-73
2021/01/17 06:44:14;;;;;;;4.85;1.73;;;15.70;52.00;;;;;;5090860;28;20483;-72
2021/01/17 06:46:45;;;;;;;4.63;1.50;;;15.80;51.90;;;;;;5090648;28;20032;-73
2021/01/17 06:49:15;;;;;;;5.45;1.38;;;15.90;51.80;;;;;;5091135;28;20031;-73
2021/01/17 06:51:42;;;;;;;5.00;1.77;;;16.00;51.70;;;;;;5090701;28;20110;-72
2021/01/17 06:54:08;;;;;;;3.72;1.52;;;16.10;51.60;;;;;;5090916;28;20048;-72
2021/01/17 06:56:34;;;;;;;6.35;2.05;;;16.20;51.60;;;;;;5090776;28;20048;-73
2021/01/17 06:59:00;;;;;;;5.47;1.75;;;16.20;51.50;;;;;;5091073;28;20024;-72
2021/01/17 07:01:28;;;;;;;5.95;1.70;;;16.30;51.40;;;;;;5090293;28;20416;-72
2021/01/17 07:04:08;;;;;;;3.42;1.40;;;16.40;51.30;;;;;;5090619;28;20023;-72
2021/01/17 07:06:52;;;;;;;4.28;1.45;;;16.50;51.20;;;;;;5090603;28;20081;-73
2021/01/17 07:09:55;;;;;;;3.58;1.30;;;16.60;51.10;;;;;;5090539;28;20028;-72
2021/01/17 07:12:46;;;;;;;6.47;1.50;;;16.70;51.00;;;;;;5090379;28;20055;-72
2021/01/17 07:15:12;;;;;;;4.05;1.70;;;16.80;51.00;;;;;;5090978;28;20392;-73
2021/01/17 07:17:40;;;;;;;4.35;1.33;;;16.90;50.90;;;;;;5090371;28;20107;-73
2021/01/17 07:20:15;;;;;;;3.05;1.38;;;16.90;50.80;;;;;;5090713;28;20016;-73
2021/01/17 07:22:44;;;;;;;6.20;1.80;;;17.00;50.70;;;;;;5090594;28;20376;-73
2021/01/17 07:25:12;;;;;;;6.15;1.90;;;17.10;50.60;;;;;;5089987;28;20484;-73
2021/01/17 07:27:59;;;;;;;5.40;1.75;;;17.20;50.60;;;;;;5090398;28;20024;-73
2021/01/17 07:30:49;;;;;;;5.25;2.03;;;17.20;50.50;;;;;;5090425;28;20036;-73
2021/01/17 07:33:23;;;;;;;5.75;1.80;;;17.40;50.50;;;;;;5090581;28;20111;-73
2021/01/17 07:35:49;;;;;;;4.35;1.33;;;17.40;50.90;;;;;;5090474;28;20379;-72
2021/01/17 07:38:19;;;;;;;4.57;1.60;;;17.50;50.30;;;;;;5091880;28;20114;-73
2021/01/17 07:40:53;;;;;;;5.75;1.55;;;17.60;50.20;;;;;;5094140;28;20047;-73
2021/01/17 07:43:23;;;;;;;5.30;1.58;;;17.60;50.10;;;;;;5094054;28;20853;-73
2021/01/17 07:45:50;;;;;;;4.22;1.58;;;17.60;50.10;;;;;;5094126;28;20021;-73
2021/01/17 07:48:16;;;;;;;3.85;1.17;;;17.60;50.00;;;;;;5094339;28;20031;-73
2021/01/17 07:50:48;;;;;;;3.65;1.30;;;17.70;49.90;;;;;;5093868;28;20094;-73
2021/01/17 07:53:17;;;;;;;4.55;1.38;;;17.70;49.90;;;;;;5094061;28;20096;-73
2021/01/17 07:55:45;;;;;;;5.45;1.90;;;17.60;50.20;;;;;;5092917;28;20422;-73
2021/01/17 07:58:11;;;;;;;4.43;1.30;;;17.60;50.60;;;;;;5093396;28;20028;-73
2021/01/17 08:00:38;;;;;;;4.03;1.30;;;17.60;50.70;;;;;;5093636;28;20107;-73
2021/01/17 08:03:05;;;;;;;4.45;1.40;;;17.60;51.40;;;;;;5094014;28;20052;-73
2021/01/17 08:05:53;;;;;;;6.43;1.77;;;17.60;50.90;;;;;;5094139;28;20103;-73
2021/01/17 08:08:34;;;;;;;6.10;1.45;;;17.50;51.10;;;;;;5093712;28;20103;-73
2021/01/17 08:11:03;;;;;;;4.03;1.65;;;17.50;51.00;;;;;;5094031;28;20047;-74
2021/01/17 08:13:35;;;;;;;5.72;1.58;;;17.50;51.10;;;;;;5093577;28;20020;-73
2021/01/17 08:16:11;;;;;;;4.22;1.42;;;17.40;51.60;;;;;;5093823;28;20036;-73
2021/01/17 08:18:39;;;;;;;3.85;1.30;;;17.50;51.10;;;;;;5093031;28;20025;-72
2021/01/17 08:21:24;;;;;;;5.78;1.60;;;17.50;51.20;;;;;;5093500;28;20069;-72
2021/01/17 08:24:11;;;;;;;3.47;1.17;;;17.40;51.10;;;;;;5075324;28;20039;-73
2021/01/17 08:26:58;;;;;;;5.28;1.20;;;17.40;51.30;;;;;;5079560;28;20484;-73
2021/01/17 08:29:24;;;;;;;4.78;1.45;;;17.40;51.40;;;;;;5081951;28;20435;-73
2021/01/17 08:31:50;;;;;;;13.52;2.22;;;17.40;51.50;;;;;;5091458;28;20067;-73
2021/01/17 08:34:17;;;;;;;10.63;2.40;;;17.40;51.90;;;;;;5091653;28;20024;-72
2021/01/17 08:36:44;;;;;;;14.32;3.17;;;17.40;52.20;;;;;;5091363;28;20016;-73
2021/01/17 08:39:11;;;;;;;9.07;2.33;;;17.40;52.40;;;;;;5091662;28;20023;-72
2021/01/17 08:41:38;;;;;;;10.35;2.40;;;17.40;52.60;;;;;;5088680;28;20023;-73
2021/01/17 08:44:07;;;;;;;16.70;3.20;;;17.40;52.60;;;;;;5092374;28;20078;-73
2021/01/17 08:46:40;;;;;;;9.52;1.92;;;17.50;52.70;;;;;;5092588;28;20016;-73
2021/01/17 08:49:06;;;;;;;11.90;2.47;;;17.50;52.80;;;;;;5092875;28;20025;-73
2021/01/17 08:51:32;;;;;;;12.40;2.80;;;17.50;52.70;;;;;;5091990;28;20024;-73
2021/01/17 08:54:21;;;;;;;15.43;3.25;;;17.50;52.70;;;;;;5093090;28;20035;-73
2021/01/17 08:56:47;;;;;;;10.98;2.30;;;17.60;52.70;;;;;;5092597;28;20039;-74
2021/01/17 08:59:33;;;;;;;12.23;2.83;;;17.60;52.70;;;;;;5092677;28;20483;-73
2021/01/17 09:01:59;;;;;;;12.02;3.03;;;17.60;52.60;;;;;;5092946;28;20403;-73
2021/01/17 09:04:27;;;;;;;9.40;2.10;;;17.60;52.50;;;;;;5092359;28;20506;-72
2021/01/17 09:06:53;;;;;;;10.77;2.33;;;17.60;52.40;;;;;;5092415;28;20387;-73
2021/01/17 09:09:19;;;;;;;14.90;3.00;;;17.70;52.60;;;;;;5092708;28;20028;-73
2021/01/17 09:11:45;;;;;;;14.82;3.85;;;17.70;52.60;;;;;;5091738;28;20077;-73
2021/01/17 09:14:21;;;;;;;13.23;3.05;;;17.70;52.70;;;;;;5092366;28;20036;-74
2021/01/17 09:16:49;;;;;;;9.63;2.53;;;17.80;52.90;;;;;;5091965;28;20024;-74
2021/01/17 09:19:16;;;;;;;12.32;2.40;;;17.80;52.80;;;;;;5092420;28;20073;-74
2021/01/17 09:21:42;;;;;;;10.13;2.15;;;17.80;52.70;;;;;;5092089;28;20387;-73
2021/01/17 09:24:18;;;;;;;10.48;2.60;;;17.90;52.70;;;;;;5092242;28;20052;-73
2021/01/17 09:26:52;;;;;;;10.55;2.08;;;18.00;52.60;;;;;;5091953;28;20104;-73
2021/01/17 09:29:25;;;;;;;8.82;2.03;;;18.00;52.50;;;;;;5091981;28;20024;-73
2021/01/17 09:31:54;;;;;;;8.98;2.58;;;18.10;52.60;;;;;;5091246;28;20704;-74
2021/01/17 09:34:34;;;;;;;9.77;2.25;;;18.20;52.60;;;;;;5074125;28;20074;-73
2021/01/17 09:37:01;;;;;;;10.85;2.08;;;18.20;52.60;;;;;;5091277;28;20034;-69
2021/01/17 09:39:33;;;;;;;10.70;2.67;;;18.20;52.70;;;;;;5091116;28;20024;-70
2021/01/17 09:41:59;;;;;;;13.00;2.22;;;18.20;52.60;;;;;;5091409;28;20055;-69
2021/01/17 09:44:25;;;;;;;6.85;1.98;;;18.30;52.60;;;;;;5088799;28;20020;-70
2021/01/17 09:46:51;;;;;;;9.50;2.25;;;18.30;52.50;;;;;;5102689;28;20023;-70
2021/01/17 09:49:22;;;;;;;9.18;2.47;;;18.40;52.50;;;;;;5080336;28;20025;-70
2021/01/17 09:51:48;;;;;;;7.82;2.42;;;18.40;52.50;;;;;;5083541;28;20534;-71
2021/01/17 09:54:14;;;;;;;16.02;3.28;;;18.40;52.30;;;;;;5071353;28;20021;-70
2021/01/17 09:56:41;;;;;;;11.15;2.70;;;18.40;52.20;;;;;;5081711;28;20922;-75
2021/01/17 09:59:25;;;;;;;10.65;2.38;;;18.50;52.50;;;;;;5073370;28;20427;-74
2021/01/17 10:01:51;;;;;;;10.15;2.30;;;18.60;53.30;;;;;;5089954;28;20050;-75
2021/01/17 10:04:21;;;;;;;11.95;2.47;;;18.70;52.40;;;;;;5090712;28;20520;-73
2021/01/17 10:06:50;;;;;;;9.88;2.53;;;18.70;52.40;;;;;;5089949;28;20527;-73
2021/01/17 10:09:17;;;;;;;6.97;2.45;;;18.70;51.70;;;;;;5085096;28;20346;-73
2021/01/17 10:11:43;;;;;;;6.68;1.90;;;18.70;51.60;;;;;;5088073;28;20047;-73
2021/01/17 10:14:11;;;;;;;8.88;2.35;;;18.80;51.40;;;;;;5077938;28;20028;-73
2021/01/17 10:16:36;;;;;;;8.57;2.25;;;18.90;52.20;;;;;;5086372;28;20024;-74
2021/01/17 10:19:06;;;;;;;5.13;1.95;;;18.90;51.80;;;;;;5091159;28;20095;-73
2021/01/17 10:21:37;;;;;;;5.35;1.92;;;19.00;51.50;;;;;;5090531;28;20491;-71
2021/01/17 10:24:04;;;;;;;8.80;2.50;;;19.00;51.40;;;;;;5090795;28;20028;-72
2021/01/17 10:26:29;;;;;;;8.40;2.85;;;19.00;51.30;;;;;;5091353;28;20035;-71
2021/01/17 10:28:55;;;;;;;9.75;2.40;;;19.10;51.20;;;;;;5090434;28;20035;-70
2021/01/17 10:31:23;;;;;;;10.70;2.22;;;19.10;51.10;;;;;;5090779;28;20044;-71
2021/01/17 10:33:49;;;;;;;17.27;2.88;;;19.20;50.80;;;;;;5090849;28;20024;-72
2021/01/17 10:36:16;;;;;;;7.50;2.40;;;19.20;50.60;;;;;;5091175;28;20036;-72
2021/01/17 10:38:43;;;;;;;6.47;1.95;;;19.30;50.40;;;;;;5090949;28;20016;-73
2021/01/17 10:41:09;;;;;;;10.75;3.03;;;19.30;50.40;;;;;;5089882;28;20445;-72
2021/01/17 10:43:36;;;;;;;9.90;2.53;;;19.40;50.10;;;;;;5091031;28;20380;-73
2021/01/17 10:46:15;;;;;;;5.78;2.83;;;19.50;50.00;;;;;;5090713;28;20103;-72
2021/01/17 10:48:54;;;;;;;9.60;2.10;;;19.50;49.90;;;;;;5074945;28;20036;-72
2021/01/17 10:51:35;;;;;;;6.65;2.50;;;19.60;49.70;;;;;;5090924;28;20032;-70
2021/01/17 10:54:05;;;;;;;6.82;2.13;;;19.70;49.70;;;;;;5090469;28;20025;-72
2021/01/17 10:56:32;;;;;;;7.38;2.08;;;19.70;49.60;;;;;;5091137;28;20085;-70
2021/01/17 10:58:58;;;;;;;5.13;1.73;;;19.80;49.40;;;;;;5090303;28;20031;-70
2021/01/17 11:01:32;;;;;;;11.00;2.53;;;19.90;49.60;;;;;;5090739;28;20480;-70
2021/01/17 11:04:00;;;;;;;8.35;2.40;;;19.90;49.20;;;;;;5090007;28;20012;-74
2021/01/17 11:06:27;;;;;;;10.15;2.15;;;20.00;49.20;;;;;;5069513;28;20077;-72
2021/01/17 11:08:58;;;;;;;8.65;2.70;;;20.20;49.00;;;;;;5080321;28;20057;-69
2021/01/17 11:11:27;;;;;;;9.68;2.33;;;20.30;48.90;;;;;;5090556;28;20040;-70
2021/01/17 11:14:02;;;;;;;7.57;2.30;;;20.40;48.60;;;;;;5090668;28;20095;-69
2021/01/17 11:16:34;;;;;;;8.80;2.50;;;20.60;48.20;;;;;;5094984;28;20028;-70
2021/01/17 11:19:00;;;;;;;9.20;2.50;;;20.60;47.80;;;;;;5093110;28;20024;-71
2021/01/17 11:21:28;;;;;;;9.27;2.17;;;20.60;47.80;;;;;;5092949;28;20092;-71
2021/01/17 11:23:55;;;;;;;7.07;2.30;;;20.50;48.10;;;;;;5110915;28;20077;-72
2021/01/17 11:26:22;;;;;;;10.15;2.70;;;20.40;48.00;;;;;;5113497;28;20024;-72
2021/01/17 11:28:59;;;;;;;12.30;3.05;;;20.40;48.90;;;;;;5069352;28;20017;-71
2021/01/17 11:31:26;;;;;;;13.73;3.00;;;20.30;48.70;;;;;;5073893;28;20033;-71
2021/01/17 11:33:52;;;;;;;9.60;3.05;;;20.30;48.90;;;;;;5079398;28;20462;-71
2021/01/17 11:36:23;;;;;;;8.50;2.92;;;20.30;49.20;;;;;;5093983;28;20496;-71
2021/01/17 11:38:54;;;;;;;10.45;3.28;;;20.20;49.60;;;;;;5084654;28;20024;-71
2021/01/17 11:41:23;;;;;;;12.68;2.97;;;20.30;50.00;;;;;;5100932;28;20042;-72
2021/01/17 11:43:50;;;;;;;8.77;2.83;;;20.30;50.10;;;;;;5073670;28;20035;-70
2021/01/17 11:46:16;;;;;;;11.40;3.45;;;20.20;50.10;;;;;;5073805;28;20100;-70
2021/01/17 11:48:43;;;;;;;7.13;2.30;;;20.20;50.10;;;;;;5090597;28;20484;-73
2021/01/17 11:51:10;;;;;;;10.82;2.78;;;20.20;50.60;;;;;;5107058;28;20039;-71
2021/01/17 11:53:37;;;;;;;7.55;2.42;;;20.20;50.20;;;;;;5109927;28;20416;-71
2021/01/17 11:56:04;;;;;;;8.55;2.75;;;20.10;49.70;;;;;;5114305;28;20028;-71
2021/01/17 11:58:40;;;;;;;9.60;2.40;;;20.00;50.10;;;;;;5100058;28;20012;-72
2021/01/17 12:01:07;;;;;;;7.80;2.60;;;20.00;50.20;;;;;;5094824;28;20488;-72
2021/01/17 12:03:37;;;;;;;11.00;2.72;;;20.10;50.60;;;;;;5088479;28;20024;-72
2021/01/17 12:06:04;;;;;;;8.27;2.58;;;20.10;50.50;;;;;;5080443;28;20056;-72
2021/01/17 12:08:49;;;;;;;8.43;2.45;;;20.10;50.50;;;;;;5073994;28;20025;-72
2021/01/17 12:11:29;;;;;;;20.02;3.83;;;20.10;50.30;;;;;;5089807;28;20042;-70
2021/01/17 12:13:55;;;;;;;10.80;3.42;;;20.10;51.10;;;;;;5080577;28;20025;-69
2021/01/17 12:16:35;;;;;;;10.00;3.38;;;20.10;50.70;;;;;;5088528;28;20475;-70
2021/01/17 12:19:01;;;;;;;10.07;4.00;;;20.10;50.70;;;;;;5090799;28;20016;-69
2021/01/17 12:21:29;;;;;;;8.57;3.55;;;20.10;50.90;;;;;;5082696;28;20027;-69
2021/01/17 12:23:56;;;;;;;8.48;3.47;;;20.10;51.00;;;;;;5085181;28;20036;-70
2021/01/17 12:26:22;;;;;;;11.27;3.58;;;20.20;50.80;;;;;;5091055;28;20094;-69
2021/01/17 12:28:47;;;;;;;9.00;3.30;;;20.20;50.80;;;;;;5092005;28;20040;-69
2021/01/17 12:31:16;;;;;;;10.20;3.83;;;20.20;50.80;;;;;;5107221;28;20105;-69
2021/01/17 12:33:42;;;;;;;8.05;3.58;;;20.20;50.70;;;;;;5092382;28;20028;-69
2021/01/17 12:36:10;;;;;;;8.57;3.42;;;20.30;50.60;;;;;;5092574;28;20064;-73
2021/01/17 12:38:36;;;;;;;11.60;3.25;;;20.30;50.90;;;;;;5092104;28;20073;-73
2021/01/17 12:41:07;;;;;;;10.02;2.83;;;20.30;51.00;;;;;;5092098;28;20039;-70
2021/01/17 12:43:33;;;;;;;8.55;2.63;;;20.30;50.90;;;;;;5086598;28;20484;-73
2021/01/17 12:45:59;;;;;;;8.30;3.05;;;20.40;51.10;;;;;;5092613;28;20058;-74
2021/01/17 12:48:25;;;;;;;9.15;2.90;;;20.40;50.90;;;;;;5084711;28;20032;-73
2021/01/17 12:50:50;;;;;;;6.30;2.67;;;20.50;50.80;;;;;;5098318;28;20043;-73
2021/01/17 12:53:16;;;;;;;6.75;2.90;;;20.50;50.80;;;;;;5105978;28;20031;-73
2021/01/17 12:55:46;;;;;;;7.75;2.47;;;20.50;50.70;;;;;;5099203;28;20484;-70